Irving South's Hourly Summary for Thursday, July 5, 2018
Hour Temp
(f)
RH
(%)
Solar Rad.
(MJ/m2)
Rainfall
(in)
Wind
(mph)
7/5/2018 12:00 AM 79 63 0 0 1.21
7/5/2018 1:00 AM 77 68 0 0 0.37
7/5/2018 2:00 AM 76 73 0 0 0.02
7/5/2018 3:00 AM 74 77 0 0 0
7/5/2018 4:00 AM 74 78 0 0 0
7/5/2018 5:00 AM 74 79 0 0 0
7/5/2018 6:00 AM 74 81 0 0 0
7/5/2018 7:00 AM 74 82 0.01 0 0
7/5/2018 8:00 AM 75 76 0.12 0 0.15
7/5/2018 9:00 AM 78 62 1.07 0 0.4
7/5/2018 10:00 AM 81 54 1.65 0 0.92
7/5/2018 11:00 AM 84 50 2.49 0 1.74
7/5/2018 12:00 PM 87 43 3.05 0 2.65
7/5/2018 1:00 PM 90 41 3.33 0 2.29
7/5/2018 2:00 PM 91 39 2.89 0 2.9
7/5/2018 3:00 PM 93 34 3.48 0 3.39
7/5/2018 4:00 PM 94 35 2.61 0 2.91
7/5/2018 5:00 PM 96 32 2.32 0 2.14
7/5/2018 6:00 PM 96 33 1.74 0 3.25
7/5/2018 7:00 PM 95 34 0.99 0 3.28
7/5/2018 8:00 PM 94 34 0.34 0 2.54
7/5/2018 9:00 PM 90 40 0.04 0 4.59
7/5/2018 10:00 PM 87 53 0 0 2.82
7/5/2018 11:00 PM 86 55 0 0 2.44
Data Summary 84 54 26.13 0.00 1.67